Hasenkamp, Argentina
Current Conditions -  °F | °C
As of 8:00 AM on Friday 24 Oct 2014 (Local Time) from SAAR Reporting Station
Clear Clear  
Wind Chill: 73°   Ceiling: Unl
Heat Index: 73°   Visibility: 6mi
Dew Point: 64°   Wind: 3mph
Humidity: 73%   Direction: 70°ENE
Pressure: 29.97"   Gusts: NA
Location:  31.52°S, 59.85°W
Report Text: SAAR 241100Z 07003KT CAVOK 23/18 Q1015
Loading
Personal Weather Stations






























Interactive Weather Map
Tropical Storm Tracking
New forecast layout! Learn more

10-Day Weather Forecast

Advertisements
Track Severe Weather on mobile